sensor_id;sensor_type;location;lat;lon;timestamp;temperature;humidity
25188;DHT22;13141;50.414;8.050;2023-08-12T00:00:11;22.50;99.90
25188;DHT22;13141;50.414;8.050;2023-08-12T00:02:37;22.50;99.90
25188;DHT22;13141;50.414;8.050;2023-08-12T00:05:03;22.50;99.90
25188;DHT22;13141;50.414;8.050;2023-08-12T00:07:30;22.40;99.90
25188;DHT22;13141;50.414;8.050;2023-08-12T00:09:56;22.30;99.90
25188;DHT22;13141;50.414;8.050;2023-08-12T00:12:22;22.20;99.90
25188;DHT22;13141;50.414;8.050;2023-08-12T00:14:47;22.10;99.90
25188;DHT22;13141;50.414;8.050;2023-08-12T00:17:14;22.10;99.90
25188;DHT22;13141;50.414;8.050;2023-08-12T00:19:40;22.10;99.90
25188;DHT22;13141;50.414;8.050;2023-08-12T00:22:06;22.00;99.90
25188;DHT22;13141;50.414;8.050;2023-08-12T00:24:33;22.00;99.90
25188;DHT22;13141;50.414;8.050;2023-08-12T00:26:58;22.00;99.90
25188;DHT22;13141;50.414;8.050;2023-08-12T00:29:24;22.00;99.90
25188;DHT22;13141;50.414;8.050;2023-08-12T00:31:50;22.00;99.90
25188;DHT22;13141;50.414;8.050;2023-08-12T00:34:16;22.00;99.90
25188;DHT22;13141;50.414;8.050;2023-08-12T00:36:42;22.00;99.90
25188;DHT22;13141;50.414;8.050;2023-08-12T00:39:08;22.20;99.90
25188;DHT22;13141;50.414;8.050;2023-08-12T00:41:35;22.00;99.90
25188;DHT22;13141;50.414;8.050;2023-08-12T00:44:00;22.00;99.90
25188;DHT22;13141;50.414;8.050;2023-08-12T00:46:26;22.00;99.90
25188;DHT22;13141;50.414;8.050;2023-08-12T00:48:52;22.00;99.90
25188;DHT22;13141;50.414;8.050;2023-08-12T00:51:18;22.00;99.90
25188;DHT22;13141;50.414;8.050;2023-08-12T00:53:45;22.00;99.90
25188;DHT22;13141;50.414;8.050;2023-08-12T00:56:15;22.00;99.90
25188;DHT22;13141;50.414;8.050;2023-08-12T00:58:43;22.00;99.90
25188;DHT22;13141;50.414;8.050;2023-08-12T01:01:08;21.90;99.90
25188;DHT22;13141;50.414;8.050;2023-08-12T01:03:35;21.90;99.90
25188;DHT22;13141;50.414;8.050;2023-08-12T01:06:01;21.90;99.90
25188;DHT22;13141;50.414;8.050;2023-08-12T01:08:30;21.90;99.90
25188;DHT22;13141;50.414;8.050;2023-08-12T01:11:06;22.00;99.90
25188;DHT22;13141;50.414;8.050;2023-08-12T01:13:46;22.00;99.90
25188;DHT22;13141;50.414;8.050;2023-08-12T01:16:14;21.90;99.90
25188;DHT22;13141;50.414;8.050;2023-08-12T01:18:40;21.90;99.90
25188;DHT22;13141;50.414;8.050;2023-08-12T01:21:08;21.80;99.90
25188;DHT22;13141;50.414;8.050;2023-08-12T01:23:37;21.80;99.90
25188;DHT22;13141;50.414;8.050;2023-08-12T01:26:03;21.90;99.90
25188;DHT22;13141;50.414;8.050;2023-08-12T01:28:29;21.90;99.90
25188;DHT22;13141;50.414;8.050;2023-08-12T01:31:08;21.90;99.90
25188;DHT22;13141;50.414;8.050;2023-08-12T01:33:40;21.90;99.90
25188;DHT22;13141;50.414;8.050;2023-08-12T01:36:10;21.90;99.90
25188;DHT22;13141;50.414;8.050;2023-08-12T01:38:38;21.90;99.90
25188;DHT22;13141;50.414;8.050;2023-08-12T01:41:05;21.90;99.90
25188;DHT22;13141;50.414;8.050;2023-08-12T01:43:32;21.90;99.90
25188;DHT22;13141;50.414;8.050;2023-08-12T01:45:58;21.90;99.90
25188;DHT22;13141;50.414;8.050;2023-08-12T01:48:24;21.90;99.90
25188;DHT22;13141;50.414;8.050;2023-08-12T01:50:50;21.80;99.90
25188;DHT22;13141;50.414;8.050;2023-08-12T01:53:16;21.70;99.90
25188;DHT22;13141;50.414;8.050;2023-08-12T01:55:44;21.60;99.90
25188;DHT22;13141;50.414;8.050;2023-08-12T01:58:10;21.50;99.90
25188;DHT22;13141;50.414;8.050;2023-08-12T02:00:36;21.50;99.90
25188;DHT22;13141;50.414;8.050;2023-08-12T02:03:02;21.60;99.90
25188;DHT22;13141;50.414;8.050;2023-08-12T02:05:28;21.60;99.90
25188;DHT22;13141;50.414;8.050;2023-08-12T02:07:53;21.60;99.90
25188;DHT22;13141;50.414;8.050;2023-08-12T02:10:22;21.60;99.90
25188;DHT22;13141;50.414;8.050;2023-08-12T02:12:49;21.60;99.90
25188;DHT22;13141;50.414;8.050;2023-08-12T02:15:15;21.60;99.90
25188;DHT22;13141;50.414;8.050;2023-08-12T02:17:42;21.40;99.90
25188;DHT22;13141;50.414;8.050;2023-08-12T02:20:08;21.30;99.90
25188;DHT22;13141;50.414;8.050;2023-08-12T02:22:34;21.20;99.90
25188;DHT22;13141;50.414;8.050;2023-08-12T02:24:59;21.20;99.90
25188;DHT22;13141;50.414;8.050;2023-08-12T02:27:25;21.20;99.90
25188;DHT22;13141;50.414;8.050;2023-08-12T02:29:56;21.20;99.90
25188;DHT22;13141;50.414;8.050;2023-08-12T02:32:21;21.20;99.90
25188;DHT22;13141;50.414;8.050;2023-08-12T02:34:47;21.10;99.90
25188;DHT22;13141;50.414;8.050;2023-08-12T02:37:13;21.10;99.90
25188;DHT22;13141;50.414;8.050;2023-08-12T02:39:38;21.20;99.90
25188;DHT22;13141;50.414;8.050;2023-08-12T02:42:04;21.30;99.90
25188;DHT22;13141;50.414;8.050;2023-08-12T02:44:30;21.40;99.90
25188;DHT22;13141;50.414;8.050;2023-08-12T02:46:58;21.50;99.90
25188;DHT22;13141;50.414;8.050;2023-08-12T02:49:24;21.50;99.90
25188;DHT22;13141;50.414;8.050;2023-08-12T02:51:50;21.50;99.90
25188;DHT22;13141;50.414;8.050;2023-08-12T02:54:16;21.50;99.90
25188;DHT22;13141;50.414;8.050;2023-08-12T02:56:42;21.20;99.90
25188;DHT22;13141;50.414;8.050;2023-08-12T02:59:09;21.50;99.90
25188;DHT22;13141;50.414;8.050;2023-08-12T03:01:35;21.40;99.90
25188;DHT22;13141;50.414;8.050;2023-08-12T03:04:04;21.40;99.90
25188;DHT22;13141;50.414;8.050;2023-08-12T03:06:30;21.40;99.90
25188;DHT22;13141;50.414;8.050;2023-08-12T03:08:56;21.20;99.90
25188;DHT22;13141;50.414;8.050;2023-08-12T03:11:25;21.50;99.90
25188;DHT22;13141;50.414;8.050;2023-08-12T03:13:50;21.60;99.90
25188;DHT22;13141;50.414;8.050;2023-08-12T03:16:16;21.60;99.90
25188;DHT22;13141;50.414;8.050;2023-08-12T03:18:42;21.70;99.90
25188;DHT22;13141;50.414;8.050;2023-08-12T03:21:11;21.60;99.90
25188;DHT22;13141;50.414;8.050;2023-08-12T03:23:37;21.50;99.90
25188;DHT22;13141;50.414;8.050;2023-08-12T03:26:04;21.50;99.90
25188;DHT22;13141;50.414;8.050;2023-08-12T03:28:30;21.50;99.90
25188;DHT22;13141;50.414;8.050;2023-08-12T03:30:56;21.50;99.90
25188;DHT22;13141;50.414;8.050;2023-08-12T03:33:22;21.60;99.90
25188;DHT22;13141;50.414;8.050;2023-08-12T03:35:48;21.70;99.90
25188;DHT22;13141;50.414;8.050;2023-08-12T03:38:15;21.70;99.90
25188;DHT22;13141;50.414;8.050;2023-08-12T03:40:43;21.80;99.90
25188;DHT22;13141;50.414;8.050;2023-08-12T03:43:08;21.80;99.90
25188;DHT22;13141;50.414;8.050;2023-08-12T03:45:39;21.70;99.90
25188;DHT22;13141;50.414;8.050;2023-08-12T03:48:06;21.70;99.90
25188;DHT22;13141;50.414;8.050;2023-08-12T03:50:33;21.70;99.90
25188;DHT22;13141;50.414;8.050;2023-08-12T03:52:59;21.60;99.90
25188;DHT22;13141;50.414;8.050;2023-08-12T03:55:26;21.60;99.90
25188;DHT22;13141;50.414;8.050;2023-08-12T03:57:51;21.60;99.90
25188;DHT22;13141;50.414;8.050;2023-08-12T04:00:17;21.60;99.90
25188;DHT22;13141;50.414;8.050;2023-08-12T04:02:43;21.60;99.90
25188;DHT22;13141;50.414;8.050;2023-08-12T04:05:09;21.70;99.90
25188;DHT22;13141;50.414;8.050;2023-08-12T04:07:36;21.70;99.90
25188;DHT22;13141;50.414;8.050;2023-08-12T04:10:02;21.90;99.90
25188;DHT22;13141;50.414;8.050;2023-08-12T04:12:31;21.80;99.90
25188;DHT22;13141;50.414;8.050;2023-08-12T04:14:56;21.80;99.90
25188;DHT22;13141;50.414;8.050;2023-08-12T04:17:23;21.80;99.90
25188;DHT22;13141;50.414;8.050;2023-08-12T04:19:49;21.90;99.90
25188;DHT22;13141;50.414;8.050;2023-08-12T04:22:15;21.90;99.90
25188;DHT22;13141;50.414;8.050;2023-08-12T04:24:43;21.90;99.90
25188;DHT22;13141;50.414;8.050;2023-08-12T04:27:09;21.90;99.90
25188;DHT22;13141;50.414;8.050;2023-08-12T04:29:36;21.90;99.90
25188;DHT22;13141;50.414;8.050;2023-08-12T04:32:02;22.00;99.90
25188;DHT22;13141;50.414;8.050;2023-08-12T04:34:28;21.90;99.90
25188;DHT22;13141;50.414;8.050;2023-08-12T04:36:54;21.90;99.90
25188;DHT22;13141;50.414;8.050;2023-08-12T04:39:19;22.00;99.90
25188;DHT22;13141;50.414;8.050;2023-08-12T04:41:45;22.00;99.90
25188;DHT22;13141;50.414;8.050;2023-08-12T04:44:11;21.90;99.90
25188;DHT22;13141;50.414;8.050;2023-08-12T04:46:38;21.90;99.90
25188;DHT22;13141;50.414;8.050;2023-08-12T04:49:04;21.90;99.90
25188;DHT22;13141;50.414;8.050;2023-08-12T04:51:30;22.00;99.90
25188;DHT22;13141;50.414;8.050;2023-08-12T04:53:56;22.00;99.90
25188;DHT22;13141;50.414;8.050;2023-08-12T04:56:22;21.90;99.90
25188;DHT22;13141;50.414;8.050;2023-08-12T04:58:47;21.90;99.90
25188;DHT22;13141;50.414;8.050;2023-08-12T05:01:13;21.90;99.90
25188;DHT22;13141;50.414;8.050;2023-08-12T05:03:40;21.90;99.90
25188;DHT22;13141;50.414;8.050;2023-08-12T05:06:06;21.90;99.90
25188;DHT22;13141;50.414;8.050;2023-08-12T05:08:32;21.90;99.90
25188;DHT22;13141;50.414;8.050;2023-08-12T05:10:57;21.80;99.90
25188;DHT22;13141;50.414;8.050;2023-08-12T05:13:23;21.80;99.90
25188;DHT22;13141;50.414;8.050;2023-08-12T05:15:49;21.90;99.90
25188;DHT22;13141;50.414;8.050;2023-08-12T05:18:15;21.80;99.90
25188;DHT22;13141;50.414;8.050;2023-08-12T05:20:43;21.90;99.90
25188;DHT22;13141;50.414;8.050;2023-08-12T05:23:08;21.90;99.90
25188;DHT22;13141;50.414;8.050;2023-08-12T05:25:35;21.90;99.90
25188;DHT22;13141;50.414;8.050;2023-08-12T05:28:00;21.90;99.90
25188;DHT22;13141;50.414;8.050;2023-08-12T05:30:26;21.40;99.90
25188;DHT22;13141;50.414;8.050;2023-08-12T05:32:52;21.90;99.90
25188;DHT22;13141;50.414;8.050;2023-08-12T05:35:19;21.90;99.90
25188;DHT22;13141;50.414;8.050;2023-08-12T05:37:46;21.90;99.90
25188;DHT22;13141;50.414;8.050;2023-08-12T05:40:12;21.90;99.90
25188;DHT22;13141;50.414;8.050;2023-08-12T05:42:38;21.90;99.90
25188;DHT22;13141;50.414;8.050;2023-08-12T05:45:05;21.90;99.90
25188;DHT22;13141;50.414;8.050;2023-08-12T05:47:30;22.00;99.90
25188;DHT22;13141;50.414;8.050;2023-08-12T05:49:56;21.90;99.90
25188;DHT22;13141;50.414;8.050;2023-08-12T05:52:22;22.00;99.90
25188;DHT22;13141;50.414;8.050;2023-08-12T05:54:49;22.10;99.90
25188;DHT22;13141;50.414;8.050;2023-08-12T05:57:15;22.00;99.90
25188;DHT22;13141;50.414;8.050;2023-08-12T05:59:40;22.10;99.90
25188;DHT22;13141;50.414;8.050;2023-08-12T06:02:06;22.20;99.90
25188;DHT22;13141;50.414;8.050;2023-08-12T06:04:32;22.20;99.90
25188;DHT22;13141;50.414;8.050;2023-08-12T06:06:58;22.20;99.90
25188;DHT22;13141;50.414;8.050;2023-08-12T06:09:24;22.20;99.90
25188;DHT22;13141;50.414;8.050;2023-08-12T06:11:51;22.30;99.90
25188;DHT22;13141;50.414;8.050;2023-08-12T06:14:19;22.40;99.90
25188;DHT22;13141;50.414;8.050;2023-08-12T06:16:47;22.50;99.90
25188;DHT22;13141;50.414;8.050;2023-08-12T06:19:13;22.60;99.90
25188;DHT22;13141;50.414;8.050;2023-08-12T06:21:39;22.70;99.90
25188;DHT22;13141;50.414;8.050;2023-08-12T06:24:05;22.80;99.90
25188;DHT22;13141;50.414;8.050;2023-08-12T06:26:31;22.90;99.90
25188;DHT22;13141;50.414;8.050;2023-08-12T06:28:58;23.00;99.90
25188;DHT22;13141;50.414;8.050;2023-08-12T06:31:24;23.10;99.90
25188;DHT22;13141;50.414;8.050;2023-08-12T06:33:50;23.20;99.90
25188;DHT22;13141;50.414;8.050;2023-08-12T06:36:15;23.30;99.90
25188;DHT22;13141;50.414;8.050;2023-08-12T06:38:41;23.40;99.90
25188;DHT22;13141;50.414;8.050;2023-08-12T06:41:07;23.40;99.90
25188;DHT22;13141;50.414;8.050;2023-08-12T06:43:33;23.20;99.90
25188;DHT22;13141;50.414;8.050;2023-08-12T06:46:00;23.20;99.90
25188;DHT22;13141;50.414;8.050;2023-08-12T06:48:26;23.20;99.90
25188;DHT22;13141;50.414;8.050;2023-08-12T06:50:53;23.20;99.90
25188;DHT22;13141;50.414;8.050;2023-08-12T06:53:19;23.20;99.90
25188;DHT22;13141;50.414;8.050;2023-08-12T06:55:45;23.20;99.90
25188;DHT22;13141;50.414;8.050;2023-08-12T06:58:12;23.20;99.90
25188;DHT22;13141;50.414;8.050;2023-08-12T07:00:38;23.20;99.90
25188;DHT22;13141;50.414;8.050;2023-08-12T07:03:06;23.20;99.90
25188;DHT22;13141;50.414;8.050;2023-08-12T07:05:32;23.20;99.90
25188;DHT22;13141;50.414;8.050;2023-08-12T07:07:58;23.30;99.90
25188;DHT22;13141;50.414;8.050;2023-08-12T07:10:24;23.30;99.90
25188;DHT22;13141;50.414;8.050;2023-08-12T07:12:50;23.40;99.90
25188;DHT22;13141;50.414;8.050;2023-08-12T07:15:15;23.40;99.90
25188;DHT22;13141;50.414;8.050;2023-08-12T07:17:41;23.50;99.90
25188;DHT22;13141;50.414;8.050;2023-08-12T07:20:09;23.60;99.90
25188;DHT22;13141;50.414;8.050;2023-08-12T07:22:35;23.60;99.90
25188;DHT22;13141;50.414;8.050;2023-08-12T07:25:00;23.60;99.90
25188;DHT22;13141;50.414;8.050;2023-08-12T07:27:27;23.60;99.90
25188;DHT22;13141;50.414;8.050;2023-08-12T07:29:53;23.50;99.90
25188;DHT22;13141;50.414;8.050;2023-08-12T07:32:19;23.50;99.90
25188;DHT22;13141;50.414;8.050;2023-08-12T07:34:45;23.50;99.90
25188;DHT22;13141;50.414;8.050;2023-08-12T07:37:12;23.50;99.90
25188;DHT22;13141;50.414;8.050;2023-08-12T07:39:38;23.50;99.90
25188;DHT22;13141;50.414;8.050;2023-08-12T07:42:04;23.40;99.90
25188;DHT22;13141;50.414;8.050;2023-08-12T07:44:30;23.40;99.90
25188;DHT22;13141;50.414;8.050;2023-08-12T07:46:56;23.40;99.90
25188;DHT22;13141;50.414;8.050;2023-08-12T07:49:22;23.30;99.90
25188;DHT22;13141;50.414;8.050;2023-08-12T07:51:48;23.30;99.90
25188;DHT22;13141;50.414;8.050;2023-08-12T07:54:15;23.30;99.90
25188;DHT22;13141;50.414;8.050;2023-08-12T07:56:41;23.40;99.90
25188;DHT22;13141;50.414;8.050;2023-08-12T07:59:07;23.50;99.90
25188;DHT22;13141;50.414;8.050;2023-08-12T08:01:32;23.60;99.90
25188;DHT22;13141;50.414;8.050;2023-08-12T08:03:58;23.60;99.90
25188;DHT22;13141;50.414;8.050;2023-08-12T08:06:24;23.60;99.90
25188;DHT22;13141;50.414;8.050;2023-08-12T08:08:49;23.60;99.90
25188;DHT22;13141;50.414;8.050;2023-08-12T08:11:17;23.60;99.90
25188;DHT22;13141;50.414;8.050;2023-08-12T08:13:43;23.70;99.90
25188;DHT22;13141;50.414;8.050;2023-08-12T08:16:08;23.70;99.90
25188;DHT22;13141;50.414;8.050;2023-08-12T08:18:34;23.80;99.90
25188;DHT22;13141;50.414;8.050;2023-08-12T08:21:00;23.90;99.90
25188;DHT22;13141;50.414;8.050;2023-08-12T08:23:25;24.00;99.90
25188;DHT22;13141;50.414;8.050;2023-08-12T08:25:51;24.10;99.90
25188;DHT22;13141;50.414;8.050;2023-08-12T08:28:18;24.30;99.90
25188;DHT22;13141;50.414;8.050;2023-08-12T08:30:44;24.50;99.90
25188;DHT22;13141;50.414;8.050;2023-08-12T08:33:13;24.70;99.90
25188;DHT22;13141;50.414;8.050;2023-08-12T08:35:38;24.70;99.90
25188;DHT22;13141;50.414;8.050;2023-08-12T08:38:04;24.60;99.90
25188;DHT22;13141;50.414;8.050;2023-08-12T08:40:30;24.60;99.90
25188;DHT22;13141;50.414;8.050;2023-08-12T08:42:59;24.40;99.90
25188;DHT22;13141;50.414;8.050;2023-08-12T08:45:41;24.30;99.90
25188;DHT22;13141;50.414;8.050;2023-08-12T08:48:07;24.40;99.90
25188;DHT22;13141;50.414;8.050;2023-08-12T08:50:34;24.60;99.90
25188;DHT22;13141;50.414;8.050;2023-08-12T08:53:01;24.70;99.90
25188;DHT22;13141;50.414;8.050;2023-08-12T08:55:27;24.70;99.90
25188;DHT22;13141;50.414;8.050;2023-08-12T08:57:53;24.90;99.90
25188;DHT22;13141;50.414;8.050;2023-08-12T09:00:22;24.90;99.90
25188;DHT22;13141;50.414;8.050;2023-08-12T09:02:50;25.10;99.90
25188;DHT22;13141;50.414;8.050;2023-08-12T09:05:17;25.20;99.90
25188;DHT22;13141;50.414;8.050;2023-08-12T09:07:43;25.20;99.90
25188;DHT22;13141;50.414;8.050;2023-08-12T09:10:10;25.40;99.90
25188;DHT22;13141;50.414;8.050;2023-08-12T09:12:36;25.20;99.90
25188;DHT22;13141;50.414;8.050;2023-08-12T09:15:02;25.20;99.90
25188;DHT22;13141;50.414;8.050;2023-08-12T09:17:28;25.30;99.90
25188;DHT22;13141;50.414;8.050;2023-08-12T09:19:55;25.50;99.90
25188;DHT22;13141;50.414;8.050;2023-08-12T09:22:24;25.40;99.90
25188;DHT22;13141;50.414;8.050;2023-08-12T09:24:56;25.20;99.90
25188;DHT22;13141;50.414;8.050;2023-08-12T09:27:22;25.20;99.90
25188;DHT22;13141;50.414;8.050;2023-08-12T09:29:48;25.00;99.90
25188;DHT22;13141;50.414;8.050;2023-08-12T09:32:18;25.30;99.90
25188;DHT22;13141;50.414;8.050;2023-08-12T09:34:47;25.10;99.90
25188;DHT22;13141;50.414;8.050;2023-08-12T09:37:15;25.20;99.90
25188;DHT22;13141;50.414;8.050;2023-08-12T09:39:42;25.40;99.90
25188;DHT22;13141;50.414;8.050;2023-08-12T09:42:08;25.50;99.90
25188;DHT22;13141;50.414;8.050;2023-08-12T09:44:35;25.70;99.90
25188;DHT22;13141;50.414;8.050;2023-08-12T09:47:01;25.90;99.90
25188;DHT22;13141;50.414;8.050;2023-08-12T09:49:27;26.30;99.90
25188;DHT22;13141;50.414;8.050;2023-08-12T09:51:53;26.30;99.90
25188;DHT22;13141;50.414;8.050;2023-08-12T09:54:21;26.20;99.90
25188;DHT22;13141;50.414;8.050;2023-08-12T09:56:48;26.20;99.90
25188;DHT22;13141;50.414;8.050;2023-08-12T09:59:15;26.10;99.90
25188;DHT22;13141;50.414;8.050;2023-08-12T10:01:45;26.10;99.90
25188;DHT22;13141;50.414;8.050;2023-08-12T10:04:11;26.10;99.90
25188;DHT22;13141;50.414;8.050;2023-08-12T10:06:40;25.80;99.90
25188;DHT22;13141;50.414;8.050;2023-08-12T10:09:10;25.80;99.90
25188;DHT22;13141;50.414;8.050;2023-08-12T10:11:37;25.80;99.90
25188;DHT22;13141;50.414;8.050;2023-08-12T10:14:04;25.80;99.90
25188;DHT22;13141;50.414;8.050;2023-08-12T10:16:30;25.60;99.90
25188;DHT22;13141;50.414;8.050;2023-08-12T10:18:56;25.40;99.90
25188;DHT22;13141;50.414;8.050;2023-08-12T10:21:22;25.20;99.90
25188;DHT22;13141;50.414;8.050;2023-08-12T10:23:49;25.10;99.90
25188;DHT22;13141;50.414;8.050;2023-08-12T10:26:15;25.00;99.90
25188;DHT22;13141;50.414;8.050;2023-08-12T10:28:44;24.90;99.90
25188;DHT22;13141;50.414;8.050;2023-08-12T10:31:12;24.70;99.90
25188;DHT22;13141;50.414;8.050;2023-08-12T10:33:38;24.80;99.90
25188;DHT22;13141;50.414;8.050;2023-08-12T10:36:05;24.80;99.90
25188;DHT22;13141;50.414;8.050;2023-08-12T10:38:32;24.70;99.90
25188;DHT22;13141;50.414;8.050;2023-08-12T10:41:16;24.50;99.90
25188;DHT22;13141;50.414;8.050;2023-08-12T10:43:52;24.30;99.90
25188;DHT22;13141;50.414;8.050;2023-08-12T10:46:29;24.30;99.90
25188;DHT22;13141;50.414;8.050;2023-08-12T10:49:03;24.20;99.90
25188;DHT22;13141;50.414;8.050;2023-08-12T10:51:44;24.20;99.90
25188;DHT22;13141;50.414;8.050;2023-08-12T10:54:22;24.20;99.90
25188;DHT22;13141;50.414;8.050;2023-08-12T10:57:10;24.40;99.90
25188;DHT22;13141;50.414;8.050;2023-08-12T10:59:56;24.60;99.90
25188;DHT22;13141;50.414;8.050;2023-08-12T11:02:27;24.70;99.90
25188;DHT22;13141;50.414;8.050;2023-08-12T11:04:55;25.10;99.90
25188;DHT22;13141;50.414;8.050;2023-08-12T11:07:22;25.00;99.90
25188;DHT22;13141;50.414;8.050;2023-08-12T11:09:51;25.20;99.90
25188;DHT22;13141;50.414;8.050;2023-08-12T11:12:17;25.50;99.90
25188;DHT22;13141;50.414;8.050;2023-08-12T11:14:47;25.70;99.90
25188;DHT22;13141;50.414;8.050;2023-08-12T11:17:15;25.60;99.90
25188;DHT22;13141;50.414;8.050;2023-08-12T11:19:41;25.60;99.90
25188;DHT22;13141;50.414;8.050;2023-08-12T11:22:07;25.80;99.90
25188;DHT22;13141;50.414;8.050;2023-08-12T11:24:33;26.00;99.90
25188;DHT22;13141;50.414;8.050;2023-08-12T11:27:00;26.40;99.90
25188;DHT22;13141;50.414;8.050;2023-08-12T11:29:26;26.10;99.90
25188;DHT22;13141;50.414;8.050;2023-08-12T11:31:51;26.10;99.90
25188;DHT22;13141;50.414;8.050;2023-08-12T11:34:19;26.10;99.90
25188;DHT22;13141;50.414;8.050;2023-08-12T11:36:44;26.10;99.90
25188;DHT22;13141;50.414;8.050;2023-08-12T11:39:10;26.30;99.90
25188;DHT22;13141;50.414;8.050;2023-08-12T11:41:36;26.40;99.90
25188;DHT22;13141;50.414;8.050;2023-08-12T11:44:03;26.30;99.90
25188;DHT22;13141;50.414;8.050;2023-08-12T11:46:29;26.10;99.90
25188;DHT22;13141;50.414;8.050;2023-08-12T11:48:57;26.00;99.90
25188;DHT22;13141;50.414;8.050;2023-08-12T11:51:24;26.00;99.90
25188;DHT22;13141;50.414;8.050;2023-08-12T11:53:50;26.30;99.90
25188;DHT22;13141;50.414;8.050;2023-08-12T11:56:17;26.70;99.90
25188;DHT22;13141;50.414;8.050;2023-08-12T11:58:43;27.00;99.90
25188;DHT22;13141;50.414;8.050;2023-08-12T12:01:09;27.00;99.90
25188;DHT22;13141;50.414;8.050;2023-08-12T12:03:35;27.10;99.90
25188;DHT22;13141;50.414;8.050;2023-08-12T12:06:01;26.80;99.90
25188;DHT22;13141;50.414;8.050;2023-08-12T12:08:32;26.50;99.90
25188;DHT22;13141;50.414;8.050;2023-08-12T12:11:03;26.30;99.90
25188;DHT22;13141;50.414;8.050;2023-08-12T12:13:31;26.30;99.90
25188;DHT22;13141;50.414;8.050;2023-08-12T12:15:57;26.20;99.90
25188;DHT22;13141;50.414;8.050;2023-08-12T12:18:25;26.20;99.90
25188;DHT22;13141;50.414;8.050;2023-08-12T12:20:55;26.20;99.90
25188;DHT22;13141;50.414;8.050;2023-08-12T12:23:22;26.40;99.90
25188;DHT22;13141;50.414;8.050;2023-08-12T12:25:58;26.50;99.90
25188;DHT22;13141;50.414;8.050;2023-08-12T12:28:25;26.60;99.90
25188;DHT22;13141;50.414;8.050;2023-08-12T12:30:51;26.60;99.90
25188;DHT22;13141;50.414;8.050;2023-08-12T12:33:16;26.70;99.90
25188;DHT22;13141;50.414;8.050;2023-08-12T12:35:42;26.50;99.90
25188;DHT22;13141;50.414;8.050;2023-08-12T12:38:11;26.40;99.90
25188;DHT22;13141;50.414;8.050;2023-08-12T12:40:37;26.60;99.90
25188;DHT22;13141;50.414;8.050;2023-08-12T12:43:04;26.80;99.90
25188;DHT22;13141;50.414;8.050;2023-08-12T12:45:30;27.10;99.90
25188;DHT22;13141;50.414;8.050;2023-08-12T12:47:59;27.30;99.90
25188;DHT22;13141;50.414;8.050;2023-08-12T12:50:26;27.10;99.90
25188;DHT22;13141;50.414;8.050;2023-08-12T12:52:52;26.90;99.90
25188;DHT22;13141;50.414;8.050;2023-08-12T12:55:17;27.00;99.90
25188;DHT22;13141;50.414;8.050;2023-08-12T12:57:43;26.70;99.90
25188;DHT22;13141;50.414;8.050;2023-08-12T13:00:11;26.70;99.90
25188;DHT22;13141;50.414;8.050;2023-08-12T13:02:38;27.00;99.90
25188;DHT22;13141;50.414;8.050;2023-08-12T13:05:04;27.50;99.90
25188;DHT22;13141;50.414;8.050;2023-08-12T13:07:30;28.00;99.90
25188;DHT22;13141;50.414;8.050;2023-08-12T13:09:56;28.30;99.90
25188;DHT22;13141;50.414;8.050;2023-08-12T13:12:21;28.30;99.90
25188;DHT22;13141;50.414;8.050;2023-08-12T13:14:47;28.50;99.90
25188;DHT22;13141;50.414;8.050;2023-08-12T13:17:16;28.60;99.90
25188;DHT22;13141;50.414;8.050;2023-08-12T13:19:41;28.80;99.90
25188;DHT22;13141;50.414;8.050;2023-08-12T13:22:07;29.40;99.90
25188;DHT22;13141;50.414;8.050;2023-08-12T13:24:35;29.80;99.90
25188;DHT22;13141;50.414;8.050;2023-08-12T13:27:01;30.30;99.90
25188;DHT22;13141;50.414;8.050;2023-08-12T13:29:27;30.50;99.90
25188;DHT22;13141;50.414;8.050;2023-08-12T13:31:52;30.40;99.90
25188;DHT22;13141;50.414;8.050;2023-08-12T13:34:20;30.50;99.90
25188;DHT22;13141;50.414;8.050;2023-08-12T13:36:46;30.90;99.90
25188;DHT22;13141;50.414;8.050;2023-08-12T13:39:12;30.80;99.90
25188;DHT22;13141;50.414;8.050;2023-08-12T13:41:38;30.50;99.90
25188;DHT22;13141;50.414;8.050;2023-08-12T13:44:04;30.20;99.90
25188;DHT22;13141;50.414;8.050;2023-08-12T13:46:30;30.00;99.90
25188;DHT22;13141;50.414;8.050;2023-08-12T13:48:57;29.60;99.90
25188;DHT22;13141;50.414;8.050;2023-08-12T13:51:25;29.30;99.90
25188;DHT22;13141;50.414;8.050;2023-08-12T13:53:50;28.70;99.90
25188;DHT22;13141;50.414;8.050;2023-08-12T13:56:16;28.30;99.90
25188;DHT22;13141;50.414;8.050;2023-08-12T13:58:42;28.20;99.90
25188;DHT22;13141;50.414;8.050;2023-08-12T14:01:08;27.70;99.90
25188;DHT22;13141;50.414;8.050;2023-08-12T14:03:35;27.70;99.90
25188;DHT22;13141;50.414;8.050;2023-08-12T14:06:01;27.60;99.90
25188;DHT22;13141;50.414;8.050;2023-08-12T14:08:28;27.50;99.90
25188;DHT22;13141;50.414;8.050;2023-08-12T14:10:54;27.50;99.90
25188;DHT22;13141;50.414;8.050;2023-08-12T14:13:20;27.40;99.90
25188;DHT22;13141;50.414;8.050;2023-08-12T14:15:45;27.30;99.90
25188;DHT22;13141;50.414;8.050;2023-08-12T14:18:13;27.20;99.90
25188;DHT22;13141;50.414;8.050;2023-08-12T14:20:39;27.20;99.90
25188;DHT22;13141;50.414;8.050;2023-08-12T14:23:06;27.30;99.90
25188;DHT22;13141;50.414;8.050;2023-08-12T14:25:35;27.30;99.90
25188;DHT22;13141;50.414;8.050;2023-08-12T14:28:00;27.40;99.90
25188;DHT22;13141;50.414;8.050;2023-08-12T14:30:27;27.40;99.90
25188;DHT22;13141;50.414;8.050;2023-08-12T14:32:53;27.50;99.90
25188;DHT22;13141;50.414;8.050;2023-08-12T14:35:19;27.40;99.90
25188;DHT22;13141;50.414;8.050;2023-08-12T14:37:45;27.50;99.90
25188;DHT22;13141;50.414;8.050;2023-08-12T14:40:11;27.60;99.90
25188;DHT22;13141;50.414;8.050;2023-08-12T14:42:39;27.60;99.90
25188;DHT22;13141;50.414;8.050;2023-08-12T14:45:05;27.80;99.90
25188;DHT22;13141;50.414;8.050;2023-08-12T14:47:31;27.80;99.90
25188;DHT22;13141;50.414;8.050;2023-08-12T14:49:57;27.80;99.90
25188;DHT22;13141;50.414;8.050;2023-08-12T14:52:24;27.90;99.90
25188;DHT22;13141;50.414;8.050;2023-08-12T14:54:50;27.80;99.90
25188;DHT22;13141;50.414;8.050;2023-08-12T14:57:16;27.80;99.90
25188;DHT22;13141;50.414;8.050;2023-08-12T14:59:43;27.70;99.90
25188;DHT22;13141;50.414;8.050;2023-08-12T15:02:09;27.50;99.90
25188;DHT22;13141;50.414;8.050;2023-08-12T15:04:35;27.30;99.90
25188;DHT22;13141;50.414;8.050;2023-08-12T15:07:03;27.20;99.90
25188;DHT22;13141;50.414;8.050;2023-08-12T15:09:29;27.20;99.90
25188;DHT22;13141;50.414;8.050;2023-08-12T15:11:55;27.10;99.90
25188;DHT22;13141;50.414;8.050;2023-08-12T15:14:20;27.00;99.90
25188;DHT22;13141;50.414;8.050;2023-08-12T15:16:47;26.90;99.90
25188;DHT22;13141;50.414;8.050;2023-08-12T15:19:13;26.90;99.90
25188;DHT22;13141;50.414;8.050;2023-08-12T15:21:44;26.80;99.90
25188;DHT22;13141;50.414;8.050;2023-08-12T15:24:10;27.00;99.90
25188;DHT22;13141;50.414;8.050;2023-08-12T15:26:36;27.30;99.90